sensor_id;sensor_type;location;lat;lon;timestamp;P1;durP1;ratioP1;P2;durP2;ratioP2
25922;SDS011;13725;51.170;4.442;2022-12-18T00:00:39;96.40;;;29.02;;
25922;SDS011;13725;51.170;4.442;2022-12-18T00:03:08;103.22;;;31.70;;
25922;SDS011;13725;51.170;4.442;2022-12-18T00:05:34;97.35;;;29.63;;
25922;SDS011;13725;51.170;4.442;2022-12-18T00:08:00;107.32;;;30.73;;
25922;SDS011;13725;51.170;4.442;2022-12-18T00:10:27;86.43;;;29.92;;
25922;SDS011;13725;51.170;4.442;2022-12-18T00:12:53;106.40;;;33.95;;
25922;SDS011;13725;51.170;4.442;2022-12-18T00:15:19;92.13;;;29.98;;
25922;SDS011;13725;51.170;4.442;2022-12-18T00:17:45;102.90;;;31.92;;
25922;SDS011;13725;51.170;4.442;2022-12-18T00:20:11;93.80;;;31.10;;
25922;SDS011;13725;51.170;4.442;2022-12-18T00:22:36;106.55;;;31.73;;
25922;SDS011;13725;51.170;4.442;2022-12-18T00:25:03;102.95;;;33.60;;
25922;SDS011;13725;51.170;4.442;2022-12-18T00:27:29;98.65;;;31.58;;
25922;SDS011;13725;51.170;4.442;2022-12-18T00:29:55;104.75;;;31.40;;
25922;SDS011;13725;51.170;4.442;2022-12-18T00:32:21;105.20;;;31.83;;
25922;SDS011;13725;51.170;4.442;2022-12-18T00:34:46;105.78;;;32.03;;
25922;SDS011;13725;51.170;4.442;2022-12-18T00:37:14;118.80;;;34.40;;
25922;SDS011;13725;51.170;4.442;2022-12-18T00:39:40;95.22;;;31.58;;
25922;SDS011;13725;51.170;4.442;2022-12-18T00:42:05;99.85;;;31.95;;
25922;SDS011;13725;51.170;4.442;2022-12-18T00:44:51;102.20;;;31.88;;
25922;SDS011;13725;51.170;4.442;2022-12-18T00:47:17;104.95;;;31.55;;
25922;SDS011;13725;51.170;4.442;2022-12-18T00:49:43;107.28;;;32.95;;
25922;SDS011;13725;51.170;4.442;2022-12-18T00:52:08;102.05;;;30.73;;
25922;SDS011;13725;51.170;4.442;2022-12-18T00:54:34;102.20;;;31.90;;
25922;SDS011;13725;51.170;4.442;2022-12-18T00:57:00;105.90;;;32.75;;
25922;SDS011;13725;51.170;4.442;2022-12-18T00:59:26;117.43;;;34.85;;
25922;SDS011;13725;51.170;4.442;2022-12-18T01:01:51;103.43;;;33.20;;
25922;SDS011;13725;51.170;4.442;2022-12-18T01:04:19;106.75;;;33.38;;
25922;SDS011;13725;51.170;4.442;2022-12-18T01:06:45;94.28;;;31.83;;
25922;SDS011;13725;51.170;4.442;2022-12-18T01:09:10;109.40;;;31.38;;
25922;SDS011;13725;51.170;4.442;2022-12-18T01:11:36;97.70;;;31.60;;
25922;SDS011;13725;51.170;4.442;2022-12-18T01:14:03;106.88;;;32.08;;
25922;SDS011;13725;51.170;4.442;2022-12-18T01:16:28;103.47;;;30.90;;
25922;SDS011;13725;51.170;4.442;2022-12-18T01:18:55;99.15;;;31.25;;
25922;SDS011;13725;51.170;4.442;2022-12-18T01:21:21;106.63;;;32.15;;
25922;SDS011;13725;51.170;4.442;2022-12-18T01:23:50;112.75;;;33.20;;
25922;SDS011;13725;51.170;4.442;2022-12-18T01:26:19;92.32;;;28.92;;
25922;SDS011;13725;51.170;4.442;2022-12-18T01:28:45;109.40;;;30.27;;
25922;SDS011;13725;51.170;4.442;2022-12-18T01:31:12;97.55;;;30.98;;
25922;SDS011;13725;51.170;4.442;2022-12-18T01:33:38;98.75;;;30.25;;
25922;SDS011;13725;51.170;4.442;2022-12-18T01:36:05;99.28;;;31.35;;
25922;SDS011;13725;51.170;4.442;2022-12-18T01:38:31;105.72;;;32.03;;
25922;SDS011;13725;51.170;4.442;2022-12-18T01:40:58;94.03;;;30.92;;
25922;SDS011;13725;51.170;4.442;2022-12-18T01:46:10;97.28;;;30.10;;
25922;SDS011;13725;51.170;4.442;2022-12-18T01:48:37;94.05;;;30.20;;
25922;SDS011;13725;51.170;4.442;2022-12-18T01:51:05;99.25;;;29.25;;
25922;SDS011;13725;51.170;4.442;2022-12-18T01:53:34;88.35;;;29.08;;
25922;SDS011;13725;51.170;4.442;2022-12-18T01:56:02;95.22;;;29.20;;
25922;SDS011;13725;51.170;4.442;2022-12-18T02:01:06;90.88;;;29.02;;
25922;SDS011;13725;51.170;4.442;2022-12-18T02:03:32;89.95;;;29.25;;
25922;SDS011;13725;51.170;4.442;2022-12-18T02:06:05;89.63;;;27.38;;
25922;SDS011;13725;51.170;4.442;2022-12-18T02:24:41;85.18;;;26.35;;
25922;SDS011;13725;51.170;4.442;2022-12-18T02:27:08;95.30;;;28.88;;
25922;SDS011;13725;51.170;4.442;2022-12-18T02:29:41;89.68;;;27.92;;
25922;SDS011;13725;51.170;4.442;2022-12-18T02:32:16;87.50;;;28.23;;
25922;SDS011;13725;51.170;4.442;2022-12-18T02:34:47;87.50;;;26.90;;
25922;SDS011;13725;51.170;4.442;2022-12-18T02:37:16;91.72;;;27.67;;
25922;SDS011;13725;51.170;4.442;2022-12-18T02:39:47;84.90;;;26.85;;
25922;SDS011;13725;51.170;4.442;2022-12-18T02:42:14;77.50;;;27.85;;
25922;SDS011;13725;51.170;4.442;2022-12-18T02:44:46;85.68;;;27.42;;
25922;SDS011;13725;51.170;4.442;2022-12-18T02:47:17;83.95;;;26.35;;
25922;SDS011;13725;51.170;4.442;2022-12-18T03:04:36;82.22;;;24.13;;
25922;SDS011;13725;51.170;4.442;2022-12-18T03:07:26;59.53;;;22.08;;
25922;SDS011;13725;51.170;4.442;2022-12-18T03:09:59;69.00;;;22.45;;
25922;SDS011;13725;51.170;4.442;2022-12-18T03:12:34;77.53;;;23.88;;
25922;SDS011;13725;51.170;4.442;2022-12-18T03:15:04;79.35;;;23.83;;
25922;SDS011;13725;51.170;4.442;2022-12-18T03:17:41;77.22;;;24.45;;
25922;SDS011;13725;51.170;4.442;2022-12-18T03:20:15;74.45;;;25.38;;
25922;SDS011;13725;51.170;4.442;2022-12-18T03:22:44;76.32;;;22.52;;
25922;SDS011;13725;51.170;4.442;2022-12-18T03:25:14;67.65;;;22.35;;
25922;SDS011;13725;51.170;4.442;2022-12-18T03:27:48;55.83;;;20.90;;
25922;SDS011;13725;51.170;4.442;2022-12-18T03:30:19;59.83;;;21.95;;
25922;SDS011;13725;51.170;4.442;2022-12-18T03:32:52;60.63;;;20.90;;
25922;SDS011;13725;51.170;4.442;2022-12-18T03:35:32;68.78;;;20.98;;
25922;SDS011;13725;51.170;4.442;2022-12-18T03:38:01;65.85;;;21.17;;
25922;SDS011;13725;51.170;4.442;2022-12-18T03:40:31;61.45;;;21.27;;
25922;SDS011;13725;51.170;4.442;2022-12-18T03:46:16;57.40;;;20.75;;
25922;SDS011;13725;51.170;4.442;2022-12-18T03:48:50;50.60;;;17.92;;
25922;SDS011;13725;51.170;4.442;2022-12-18T03:51:40;62.08;;;20.63;;
25922;SDS011;13725;51.170;4.442;2022-12-18T03:54:22;60.38;;;19.80;;
25922;SDS011;13725;51.170;4.442;2022-12-18T03:57:01;68.85;;;21.33;;
25922;SDS011;13725;51.170;4.442;2022-12-18T03:59:35;56.13;;;20.25;;
25922;SDS011;13725;51.170;4.442;2022-12-18T04:02:02;61.80;;;20.92;;
25922;SDS011;13725;51.170;4.442;2022-12-18T04:04:31;60.15;;;20.65;;
25922;SDS011;13725;51.170;4.442;2022-12-18T04:07:01;57.35;;;20.90;;
25922;SDS011;13725;51.170;4.442;2022-12-18T04:09:28;60.58;;;21.00;;
25922;SDS011;13725;51.170;4.442;2022-12-18T04:11:57;53.60;;;19.60;;
25922;SDS011;13725;51.170;4.442;2022-12-18T04:14:22;56.88;;;19.75;;
25922;SDS011;13725;51.170;4.442;2022-12-18T04:16:52;54.42;;;19.45;;
25922;SDS011;13725;51.170;4.442;2022-12-18T04:19:22;58.28;;;19.60;;
25922;SDS011;13725;51.170;4.442;2022-12-18T04:21:50;56.53;;;19.80;;
25922;SDS011;13725;51.170;4.442;2022-12-18T04:24:16;60.97;;;20.63;;
25922;SDS011;13725;51.170;4.442;2022-12-18T04:26:51;55.45;;;19.52;;
25922;SDS011;13725;51.170;4.442;2022-12-18T04:29:22;52.42;;;20.02;;
25922;SDS011;13725;51.170;4.442;2022-12-18T04:31:47;58.65;;;19.08;;
25922;SDS011;13725;51.170;4.442;2022-12-18T04:34:14;62.67;;;18.60;;
25922;SDS011;13725;51.170;4.442;2022-12-18T04:36:47;49.60;;;17.70;;
25922;SDS011;13725;51.170;4.442;2022-12-18T04:39:14;44.95;;;16.17;;
25922;SDS011;13725;51.170;4.442;2022-12-18T04:41:51;51.45;;;17.92;;
25922;SDS011;13725;51.170;4.442;2022-12-18T04:44:16;54.65;;;17.75;;
25922;SDS011;13725;51.170;4.442;2022-12-18T04:46:42;42.72;;;16.58;;
25922;SDS011;13725;51.170;4.442;2022-12-18T04:49:08;49.58;;;17.63;;
25922;SDS011;13725;51.170;4.442;2022-12-18T04:51:35;60.65;;;19.23;;
25922;SDS011;13725;51.170;4.442;2022-12-18T04:54:01;52.80;;;18.05;;
25922;SDS011;13725;51.170;4.442;2022-12-18T04:56:27;51.67;;;17.25;;
25922;SDS011;13725;51.170;4.442;2022-12-18T04:58:53;49.25;;;17.58;;
25922;SDS011;13725;51.170;4.442;2022-12-18T05:01:18;47.42;;;16.92;;
25922;SDS011;13725;51.170;4.442;2022-12-18T05:03:44;49.53;;;17.58;;
25922;SDS011;13725;51.170;4.442;2022-12-18T05:06:10;46.78;;;16.92;;
25922;SDS011;13725;51.170;4.442;2022-12-18T05:08:36;51.17;;;18.20;;
25922;SDS011;13725;51.170;4.442;2022-12-18T05:11:03;57.05;;;17.33;;
25922;SDS011;13725;51.170;4.442;2022-12-18T05:13:33;49.70;;;18.05;;
25922;SDS011;13725;51.170;4.442;2022-12-18T05:16:00;44.75;;;18.67;;
25922;SDS011;13725;51.170;4.442;2022-12-18T05:18:26;47.05;;;17.25;;
25922;SDS011;13725;51.170;4.442;2022-12-18T05:20:52;49.78;;;17.15;;
25922;SDS011;13725;51.170;4.442;2022-12-18T05:23:19;49.42;;;16.85;;
25922;SDS011;13725;51.170;4.442;2022-12-18T05:25:50;43.08;;;17.25;;
25922;SDS011;13725;51.170;4.442;2022-12-18T05:28:18;49.47;;;15.98;;
25922;SDS011;13725;51.170;4.442;2022-12-18T05:30:50;45.90;;;18.13;;
25922;SDS011;13725;51.170;4.442;2022-12-18T05:33:18;42.50;;;16.08;;
25922;SDS011;13725;51.170;4.442;2022-12-18T05:35:49;48.30;;;16.52;;
25922;SDS011;13725;51.170;4.442;2022-12-18T05:38:17;45.78;;;16.65;;
25922;SDS011;13725;51.170;4.442;2022-12-18T05:40:43;51.35;;;17.85;;
25922;SDS011;13725;51.170;4.442;2022-12-18T05:43:09;47.80;;;16.95;;
25922;SDS011;13725;51.170;4.442;2022-12-18T05:45:38;52.28;;;18.48;;
25922;SDS011;13725;51.170;4.442;2022-12-18T05:48:05;41.10;;;16.15;;
25922;SDS011;13725;51.170;4.442;2022-12-18T05:50:41;44.95;;;16.48;;
25922;SDS011;13725;51.170;4.442;2022-12-18T05:53:10;40.78;;;15.57;;
25922;SDS011;13725;51.170;4.442;2022-12-18T05:55:37;44.40;;;17.40;;
25922;SDS011;13725;51.170;4.442;2022-12-18T05:58:04;43.95;;;18.02;;
25922;SDS011;13725;51.170;4.442;2022-12-18T06:00:32;47.35;;;15.38;;
25922;SDS011;13725;51.170;4.442;2022-12-18T06:02:59;41.38;;;16.02;;
25922;SDS011;13725;51.170;4.442;2022-12-18T06:05:26;40.10;;;15.43;;
25922;SDS011;13725;51.170;4.442;2022-12-18T06:07:52;37.25;;;15.43;;
25922;SDS011;13725;51.170;4.442;2022-12-18T06:10:18;42.42;;;15.75;;
25922;SDS011;13725;51.170;4.442;2022-12-18T06:12:44;41.15;;;15.25;;
25922;SDS011;13725;51.170;4.442;2022-12-18T06:15:09;37.80;;;13.95;;
25922;SDS011;13725;51.170;4.442;2022-12-18T06:17:35;43.08;;;16.23;;
25922;SDS011;13725;51.170;4.442;2022-12-18T06:20:02;39.03;;;14.15;;
25922;SDS011;13725;51.170;4.442;2022-12-18T06:22:30;45.22;;;14.65;;
25922;SDS011;13725;51.170;4.442;2022-12-18T06:24:56;40.33;;;14.60;;
25922;SDS011;13725;51.170;4.442;2022-12-18T06:27:22;38.00;;;15.10;;
25922;SDS011;13725;51.170;4.442;2022-12-18T06:29:47;39.00;;;15.20;;
25922;SDS011;13725;51.170;4.442;2022-12-18T06:32:14;42.58;;;13.82;;
25922;SDS011;13725;51.170;4.442;2022-12-18T06:34:40;38.10;;;15.25;;
25922;SDS011;13725;51.170;4.442;2022-12-18T06:37:05;37.35;;;13.98;;
25922;SDS011;13725;51.170;4.442;2022-12-18T06:39:31;41.55;;;14.63;;
25922;SDS011;13725;51.170;4.442;2022-12-18T06:41:57;41.22;;;15.73;;
25922;SDS011;13725;51.170;4.442;2022-12-18T06:44:22;40.97;;;14.70;;
25922;SDS011;13725;51.170;4.442;2022-12-18T06:46:48;41.55;;;15.48;;
25922;SDS011;13725;51.170;4.442;2022-12-18T06:49:14;38.40;;;13.75;;
25922;SDS011;13725;51.170;4.442;2022-12-18T06:51:42;39.95;;;15.23;;
25922;SDS011;13725;51.170;4.442;2022-12-18T06:54:07;37.95;;;14.15;;
25922;SDS011;13725;51.170;4.442;2022-12-18T06:56:33;39.22;;;15.48;;
25922;SDS011;13725;51.170;4.442;2022-12-18T06:58:59;44.78;;;15.65;;
25922;SDS011;13725;51.170;4.442;2022-12-18T07:01:25;34.78;;;13.57;;
25922;SDS011;13725;51.170;4.442;2022-12-18T07:03:52;43.67;;;13.73;;
25922;SDS011;13725;51.170;4.442;2022-12-18T07:06:20;39.63;;;14.18;;
25922;SDS011;13725;51.170;4.442;2022-12-18T07:08:47;34.70;;;13.82;;
25922;SDS011;13725;51.170;4.442;2022-12-18T07:11:14;39.00;;;14.23;;
25922;SDS011;13725;51.170;4.442;2022-12-18T07:13:40;36.85;;;14.30;;
25922;SDS011;13725;51.170;4.442;2022-12-18T07:16:10;35.25;;;13.45;;
25922;SDS011;13725;51.170;4.442;2022-12-18T07:18:37;37.60;;;14.73;;
25922;SDS011;13725;51.170;4.442;2022-12-18T07:21:04;38.13;;;13.73;;
25922;SDS011;13725;51.170;4.442;2022-12-18T07:23:31;38.63;;;14.27;;
25922;SDS011;13725;51.170;4.442;2022-12-18T07:26:04;36.17;;;14.05;;
25922;SDS011;13725;51.170;4.442;2022-12-18T07:28:35;38.58;;;14.80;;
25922;SDS011;13725;51.170;4.442;2022-12-18T07:31:02;37.83;;;13.25;;
25922;SDS011;13725;51.170;4.442;2022-12-18T07:33:32;36.17;;;12.38;;
25922;SDS011;13725;51.170;4.442;2022-12-18T07:35:59;40.80;;;14.15;;
25922;SDS011;13725;51.170;4.442;2022-12-18T07:38:26;33.95;;;14.20;;
25922;SDS011;13725;51.170;4.442;2022-12-18T07:40:52;39.95;;;13.73;;
25922;SDS011;13725;51.170;4.442;2022-12-18T07:43:18;40.15;;;13.50;;
25922;SDS011;13725;51.170;4.442;2022-12-18T07:45:43;32.65;;;12.70;;
25922;SDS011;13725;51.170;4.442;2022-12-18T07:48:09;35.47;;;13.82;;
25922;SDS011;13725;51.170;4.442;2022-12-18T07:50:36;35.63;;;12.95;;
25922;SDS011;13725;51.170;4.442;2022-12-18T07:53:02;32.78;;;12.77;;
25922;SDS011;13725;51.170;4.442;2022-12-18T07:55:30;39.10;;;13.82;;
25922;SDS011;13725;51.170;4.442;2022-12-18T07:57:56;32.70;;;12.63;;
25922;SDS011;13725;51.170;4.442;2022-12-18T08:00:22;41.90;;;13.27;;
25922;SDS011;13725;51.170;4.442;2022-12-18T08:02:47;35.78;;;13.32;;
25922;SDS011;13725;51.170;4.442;2022-12-18T08:05:13;36.85;;;14.07;;
25922;SDS011;13725;51.170;4.442;2022-12-18T08:07:39;31.17;;;12.73;;
25922;SDS011;13725;51.170;4.442;2022-12-18T08:10:05;29.08;;;13.20;;
25922;SDS011;13725;51.170;4.442;2022-12-18T08:12:32;35.33;;;13.27;;
25922;SDS011;13725;51.170;4.442;2022-12-18T08:14:57;39.45;;;13.65;;
25922;SDS011;13725;51.170;4.442;2022-12-18T08:17:23;38.67;;;14.25;;
25922;SDS011;13725;51.170;4.442;2022-12-18T08:19:49;33.78;;;13.35;;
25922;SDS011;13725;51.170;4.442;2022-12-18T08:22:14;34.95;;;13.35;;
25922;SDS011;13725;51.170;4.442;2022-12-18T08:24:40;40.40;;;15.20;;
25922;SDS011;13725;51.170;4.442;2022-12-18T08:27:06;35.47;;;13.82;;
25922;SDS011;13725;51.170;4.442;2022-12-18T08:29:31;25.48;;;12.10;;
25922;SDS011;13725;51.170;4.442;2022-12-18T08:31:58;33.58;;;12.60;;
25922;SDS011;13725;51.170;4.442;2022-12-18T08:34:24;32.90;;;12.45;;
25922;SDS011;13725;51.170;4.442;2022-12-18T08:36:50;28.08;;;11.68;;
25922;SDS011;13725;51.170;4.442;2022-12-18T08:39:16;29.73;;;12.90;;
25922;SDS011;13725;51.170;4.442;2022-12-18T08:41:41;28.35;;;12.35;;
25922;SDS011;13725;51.170;4.442;2022-12-18T08:44:07;28.55;;;12.13;;
25922;SDS011;13725;51.170;4.442;2022-12-18T08:46:53;25.10;;;11.45;;
25922;SDS011;13725;51.170;4.442;2022-12-18T08:49:18;30.75;;;12.57;;
25922;SDS011;13725;51.170;4.442;2022-12-18T08:51:44;32.67;;;11.27;;
25922;SDS011;13725;51.170;4.442;2022-12-18T08:54:13;27.30;;;11.63;;
25922;SDS011;13725;51.170;4.442;2022-12-18T08:56:39;27.27;;;11.77;;
25922;SDS011;13725;51.170;4.442;2022-12-18T08:59:04;29.92;;;11.30;;
25922;SDS011;13725;51.170;4.442;2022-12-18T09:01:30;27.50;;;10.65;;
25922;SDS011;13725;51.170;4.442;2022-12-18T09:03:56;30.90;;;11.13;;
25922;SDS011;13725;51.170;4.442;2022-12-18T09:06:22;29.42;;;11.75;;
25922;SDS011;13725;51.170;4.442;2022-12-18T09:08:48;29.38;;;11.45;;
25922;SDS011;13725;51.170;4.442;2022-12-18T09:11:24;24.10;;;10.93;;
25922;SDS011;13725;51.170;4.442;2022-12-18T09:13:52;25.48;;;10.45;;
25922;SDS011;13725;51.170;4.442;2022-12-18T09:16:19;27.15;;;11.02;;
25922;SDS011;13725;51.170;4.442;2022-12-18T09:18:45;23.60;;;10.70;;
25922;SDS011;13725;51.170;4.442;2022-12-18T09:21:12;28.88;;;11.25;;
25922;SDS011;13725;51.170;4.442;2022-12-18T09:23:40;28.42;;;11.30;;
25922;SDS011;13725;51.170;4.442;2022-12-18T09:26:06;33.50;;;12.88;;
25922;SDS011;13725;51.170;4.442;2022-12-18T09:28:32;28.50;;;12.20;;
25922;SDS011;13725;51.170;4.442;2022-12-18T09:30:57;23.73;;;11.07;;
25922;SDS011;13725;51.170;4.442;2022-12-18T09:33:23;22.35;;;10.82;;
25922;SDS011;13725;51.170;4.442;2022-12-18T09:35:49;33.58;;;11.00;;
25922;SDS011;13725;51.170;4.442;2022-12-18T09:38:16;27.10;;;11.38;;
25922;SDS011;13725;51.170;4.442;2022-12-18T09:40:52;27.05;;;12.00;;
25922;SDS011;13725;51.170;4.442;2022-12-18T09:43:24;27.35;;;11.77;;
25922;SDS011;13725;51.170;4.442;2022-12-18T09:45:59;23.42;;;11.40;;
25922;SDS011;13725;51.170;4.442;2022-12-18T09:48:40;28.77;;;11.35;;
25922;SDS011;13725;51.170;4.442;2022-12-18T09:51:13;30.65;;;11.63;;
25922;SDS011;13725;51.170;4.442;2022-12-18T09:53:44;30.50;;;13.00;;
25922;SDS011;13725;51.170;4.442;2022-12-18T09:56:17;25.05;;;11.30;;
25922;SDS011;13725;51.170;4.442;2022-12-18T09:58:49;28.98;;;11.75;;
25922;SDS011;13725;51.170;4.442;2022-12-18T10:01:24;26.88;;;11.23;;
25922;SDS011;13725;51.170;4.442;2022-12-18T10:03:52;26.73;;;11.88;;
25922;SDS011;13725;51.170;4.442;2022-12-18T10:06:33;26.67;;;10.70;;
25922;SDS011;13725;51.170;4.442;2022-12-18T10:11:53;23.50;;;11.43;;
25922;SDS011;13725;51.170;4.442;2022-12-18T10:14:47;27.17;;;11.45;;
25922;SDS011;13725;51.170;4.442;2022-12-18T10:20:12;25.45;;;11.68;;
25922;SDS011;13725;51.170;4.442;2022-12-18T10:25:24;25.35;;;11.80;;
25922;SDS011;13725;51.170;4.442;2022-12-18T10:28:00;25.83;;;11.32;;
25922;SDS011;13725;51.170;4.442;2022-12-18T10:30:34;27.63;;;11.23;;
25922;SDS011;13725;51.170;4.442;2022-12-18T10:33:01;26.73;;;11.65;;
25922;SDS011;13725;51.170;4.442;2022-12-18T10:35:28;27.73;;;11.95;;
25922;SDS011;13725;51.170;4.442;2022-12-18T10:41:22;28.90;;;10.82;;
25922;SDS011;13725;51.170;4.442;2022-12-18T10:46:00;22.67;;;11.30;;
25922;SDS011;13725;51.170;4.442;2022-12-18T10:48:34;28.27;;;11.45;;
25922;SDS011;13725;51.170;4.442;2022-12-18T10:51:05;30.90;;;12.65;;
25922;SDS011;13725;51.170;4.442;2022-12-18T10:53:32;26.27;;;11.65;;
25922;SDS011;13725;51.170;4.442;2022-12-18T10:56:00;27.13;;;11.30;;
25922;SDS011;13725;51.170;4.442;2022-12-18T10:58:30;31.25;;;12.45;;
25922;SDS011;13725;51.170;4.442;2022-12-18T11:01:05;27.50;;;12.35;;
25922;SDS011;13725;51.170;4.442;2022-12-18T11:06:21;28.05;;;11.68;;
25922;SDS011;13725;51.170;4.442;2022-12-18T11:11:30;23.92;;;11.65;;
25922;SDS011;13725;51.170;4.442;2022-12-18T11:16:28;27.08;;;11.80;;
25922;SDS011;13725;51.170;4.442;2022-12-18T11:19:08;25.40;;;11.50;;
25922;SDS011;13725;51.170;4.442;2022-12-18T11:21:40;31.33;;;12.40;;
25922;SDS011;13725;51.170;4.442;2022-12-18T11:24:14;29.02;;;12.95;;
25922;SDS011;13725;51.170;4.442;2022-12-18T11:26:45;26.40;;;11.40;;
25922;SDS011;13725;51.170;4.442;2022-12-18T11:29:16;26.30;;;12.18;;
25922;SDS011;13725;51.170;4.442;2022-12-18T11:31:43;27.27;;;11.88;;
25922;SDS011;13725;51.170;4.442;2022-12-18T11:34:13;25.88;;;11.98;;
25922;SDS011;13725;51.170;4.442;2022-12-18T11:36:51;28.50;;;12.63;;
25922;SDS011;13725;51.170;4.442;2022-12-18T11:39:20;24.85;;;11.60;;
25922;SDS011;13725;51.170;4.442;2022-12-18T11:41:58;28.10;;;11.82;;
25922;SDS011;13725;51.170;4.442;2022-12-18T11:44:41;28.15;;;11.63;;
25922;SDS011;13725;51.170;4.442;2022-12-18T11:47:25;28.75;;;12.38;;
25922;SDS011;13725;51.170;4.442;2022-12-18T11:49:56;25.75;;;11.95;;
25922;SDS011;13725;51.170;4.442;2022-12-18T11:52:38;26.80;;;12.35;;
25922;SDS011;13725;51.170;4.442;2022-12-18T11:57:55;27.80;;;12.60;;
25922;SDS011;13725;51.170;4.442;2022-12-18T12:00:32;26.08;;;11.80;;
25922;SDS011;13725;51.170;4.442;2022-12-18T12:16:25;22.67;;;11.30;;
25922;SDS011;13725;51.170;4.442;2022-12-18T12:21:51;26.30;;;11.93;;
25922;SDS011;13725;51.170;4.442;2022-12-18T12:24:49;27.70;;;11.60;;
25922;SDS011;13725;51.170;4.442;2022-12-18T12:30:06;27.42;;;11.88;;
25922;SDS011;13725;51.170;4.442;2022-12-18T12:35:45;26.55;;;11.68;;
25922;SDS011;13725;51.170;4.442;2022-12-18T12:38:13;24.52;;;11.60;;
25922;SDS011;13725;51.170;4.442;2022-12-18T12:40:48;25.02;;;11.95;;
25922;SDS011;13725;51.170;4.442;2022-12-18T12:46:12;24.88;;;11.18;;
25922;SDS011;13725;51.170;4.442;2022-12-18T12:51:26;25.75;;;11.70;;
25922;SDS011;13725;51.170;4.442;2022-12-18T12:53:56;26.33;;;12.40;;
25922;SDS011;13725;51.170;4.442;2022-12-18T12:56:24;32.33;;;12.35;;
25922;SDS011;13725;51.170;4.442;2022-12-18T12:59:22;30.63;;;13.52;;
25922;SDS011;13725;51.170;4.442;2022-12-18T13:02:22;26.80;;;12.70;;
25922;SDS011;13725;51.170;4.442;2022-12-18T13:05:18;30.30;;;13.27;;
25922;SDS011;13725;51.170;4.442;2022-12-18T13:07:57;30.80;;;13.05;;
25922;SDS011;13725;51.170;4.442;2022-12-18T13:10:31;25.52;;;12.77;;
25922;SDS011;13725;51.170;4.442;2022-12-18T13:13:09;32.07;;;13.10;;
25922;SDS011;13725;51.170;4.442;2022-12-18T13:18:24;31.17;;;13.27;;
25922;SDS011;13725;51.170;4.442;2022-12-18T13:25:55;27.80;;;12.70;;
25922;SDS011;13725;51.170;4.442;2022-12-18T13:28:22;31.17;;;14.70;;
25922;SDS011;13725;51.170;4.442;2022-12-18T13:35:53;33.10;;;13.75;;
25922;SDS011;13725;51.170;4.442;2022-12-18T13:38:40;31.63;;;14.25;;
25922;SDS011;13725;51.170;4.442;2022-12-18T13:43:34;30.92;;;14.40;;
25922;SDS011;13725;51.170;4.442;2022-12-18T13:51:30;26.83;;;12.73;;
25922;SDS011;13725;51.170;4.442;2022-12-18T13:53:59;33.35;;;14.50;;
25922;SDS011;13725;51.170;4.442;2022-12-18T13:56:28;29.38;;;14.18;;
25922;SDS011;13725;51.170;4.442;2022-12-18T14:01:51;37.03;;;14.35;;
25922;SDS011;13725;51.170;4.442;2022-12-18T14:04:19;33.72;;;15.77;;
25922;SDS011;13725;51.170;4.442;2022-12-18T14:06:49;35.13;;;14.95;;
25922;SDS011;13725;51.170;4.442;2022-12-18T14:09:20;36.65;;;16.10;;
25922;SDS011;13725;51.170;4.442;2022-12-18T14:11:51;30.67;;;14.93;;
25922;SDS011;13725;51.170;4.442;2022-12-18T14:14:39;33.60;;;15.02;;
25922;SDS011;13725;51.170;4.442;2022-12-18T14:17:11;31.55;;;14.18;;
25922;SDS011;13725;51.170;4.442;2022-12-18T14:19:40;27.50;;;13.57;;
25922;SDS011;13725;51.170;4.442;2022-12-18T14:22:12;36.90;;;14.98;;
25922;SDS011;13725;51.170;4.442;2022-12-18T14:27:45;34.47;;;14.95;;
25922;SDS011;13725;51.170;4.442;2022-12-18T14:30:55;34.50;;;14.88;;
25922;SDS011;13725;51.170;4.442;2022-12-18T14:35:29;35.22;;;15.77;;
25922;SDS011;13725;51.170;4.442;2022-12-18T14:38:20;39.03;;;16.55;;
25922;SDS011;13725;51.170;4.442;2022-12-18T14:40:53;38.40;;;16.45;;
25922;SDS011;13725;51.170;4.442;2022-12-18T14:43:20;40.03;;;17.23;;
25922;SDS011;13725;51.170;4.442;2022-12-18T14:45:46;36.72;;;16.67;;
25922;SDS011;13725;51.170;4.442;2022-12-18T14:50:58;39.42;;;16.77;;
25922;SDS011;13725;51.170;4.442;2022-12-18T14:53:36;41.95;;;17.65;;
25922;SDS011;13725;51.170;4.442;2022-12-18T14:56:12;36.83;;;16.95;;
25922;SDS011;13725;51.170;4.442;2022-12-18T14:58:59;39.15;;;16.90;;
25922;SDS011;13725;51.170;4.442;2022-12-18T15:03:53;38.13;;;16.70;;
25922;SDS011;13725;51.170;4.442;2022-12-18T15:06:27;36.72;;;16.60;;
25922;SDS011;13725;51.170;4.442;2022-12-18T15:08:57;33.78;;;16.83;;
25922;SDS011;13725;51.170;4.442;2022-12-18T15:14:00;45.75;;;18.05;;
25922;SDS011;13725;51.170;4.442;2022-12-18T15:16:54;38.05;;;16.75;;
25922;SDS011;13725;51.170;4.442;2022-12-18T15:19:21;40.35;;;16.58;;
25922;SDS011;13725;51.170;4.442;2022-12-18T15:21:50;38.40;;;15.88;;
25922;SDS011;13725;51.170;4.442;2022-12-18T15:24:17;42.83;;;18.08;;
25922;SDS011;13725;51.170;4.442;2022-12-18T15:26:47;41.50;;;16.85;;
25922;SDS011;13725;51.170;4.442;2022-12-18T15:29:20;38.03;;;17.52;;
25922;SDS011;13725;51.170;4.442;2022-12-18T15:31:59;36.10;;;16.05;;
25922;SDS011;13725;51.170;4.442;2022-12-18T15:34:30;38.53;;;16.42;;
25922;SDS011;13725;51.170;4.442;2022-12-18T15:36:57;37.53;;;16.95;;
25922;SDS011;13725;51.170;4.442;2022-12-18T15:39:22;36.28;;;17.08;;
25922;SDS011;13725;51.170;4.442;2022-12-18T15:41:48;42.88;;;17.10;;
25922;SDS011;13725;51.170;4.442;2022-12-18T15:44:32;38.25;;;16.42;;
25922;SDS011;13725;51.170;4.442;2022-12-18T15:46:59;36.03;;;16.33;;
25922;SDS011;13725;51.170;4.442;2022-12-18T15:49:24;33.80;;;14.90;;
25922;SDS011;13725;51.170;4.442;2022-12-18T15:51:54;43.13;;;16.45;;
25922;SDS011;13725;51.170;4.442;2022-12-18T15:54:22;42.88;;;17.90;;
25922;SDS011;13725;51.170;4.442;2022-12-18T15:57:11;41.58;;;17.33;;
25922;SDS011;13725;51.170;4.442;2022-12-18T15:59:55;36.63;;;15.63;;
25922;SDS011;13725;51.170;4.442;2022-12-18T16:04:49;43.85;;;16.27;;
25922;SDS011;13725;51.170;4.442;2022-12-18T16:07:16;38.33;;;15.35;;
25922;SDS011;13725;51.170;4.442;2022-12-18T16:09:42;43.92;;;18.65;;
25922;SDS011;13725;51.170;4.442;2022-12-18T16:12:26;43.60;;;17.60;;
25922;SDS011;13725;51.170;4.442;2022-12-18T16:14:52;43.80;;;17.77;;
25922;SDS011;13725;51.170;4.442;2022-12-18T16:17:18;44.58;;;17.40;;
25922;SDS011;13725;51.170;4.442;2022-12-18T16:19:44;41.72;;;17.50;;
25922;SDS011;13725;51.170;4.442;2022-12-18T16:22:23;40.45;;;16.92;;
25922;SDS011;13725;51.170;4.442;2022-12-18T16:24:52;43.28;;;17.23;;
25922;SDS011;13725;51.170;4.442;2022-12-18T16:27:19;40.65;;;17.25;;
25922;SDS011;13725;51.170;4.442;2022-12-18T16:29:46;39.05;;;17.45;;
25922;SDS011;13725;51.170;4.442;2022-12-18T16:32:14;48.92;;;18.40;;
25922;SDS011;13725;51.170;4.442;2022-12-18T16:34:42;40.22;;;17.63;;
25922;SDS011;13725;51.170;4.442;2022-12-18T16:37:09;41.00;;;17.65;;
25922;SDS011;13725;51.170;4.442;2022-12-18T16:39:36;42.88;;;17.48;;
25922;SDS011;13725;51.170;4.442;2022-12-18T16:42:10;41.75;;;17.02;;
25922;SDS011;13725;51.170;4.442;2022-12-18T16:44:40;43.83;;;17.25;;
25922;SDS011;13725;51.170;4.442;2022-12-18T16:47:06;44.47;;;16.95;;